createdAt,value
2018-11-02T00:02:01.685Z,90.07
2018-11-02T00:05:25.435Z,89.36
2018-11-02T00:08:42.050Z,89.49
2018-11-02T00:11:58.704Z,90.10
2018-11-02T00:15:14.601Z,90.07
2018-11-02T00:18:31.226Z,88.62
2018-11-02T00:21:36.127Z,89.13
2018-11-02T00:24:41.067Z,89.87
2018-11-02T00:28:04.821Z,90.95
2018-11-02T00:31:24.087Z,91.13
2018-11-02T00:37:58.730Z,89.94
2018-11-02T00:41:15.066Z,89.90
2018-11-02T00:44:31.212Z,90.08
2018-11-02T00:47:36.157Z,89.79
2018-11-02T00:51:00.026Z,89.09
2018-11-02T00:54:23.781Z,88.81
2018-11-02T00:57:39.615Z,89.48
2018-11-02T01:00:56.137Z,90.00
2018-11-02T01:04:01.117Z,90.19
2018-11-02T01:07:06.611Z,90.20
2018-11-02T01:10:30.330Z,89.82
2018-11-02T01:13:46.696Z,90.16
2018-11-02T01:17:02.709Z,89.96
2018-11-02T01:23:33.247Z,90.87
2018-11-02T01:26:49.155Z,90.02
2018-11-02T01:30:05.688Z,91.00
2018-11-02T01:33:10.587Z,90.35
2018-11-02T01:36:15.397Z,90.57
2018-11-02T01:39:39.171Z,90.33
2018-11-02T01:43:01.465Z,90.33
2018-11-02T01:46:00.816Z,91.17
2018-11-02T01:52:30.507Z,93.51
2018-11-02T01:55:46.287Z,93.34
2018-11-02T01:59:01.953Z,92.30
2018-11-02T02:02:18.570Z,92.55
2018-11-02T02:05:34.291Z,93.06
2018-11-02T02:12:11.313Z,93.49
2018-11-02T02:15:27.227Z,94.94
2018-11-02T02:18:43.872Z,94.95
2018-11-02T02:21:37.478Z,94.77
2018-11-02T02:25:01.453Z,95.80
2018-11-02T02:28:06.350Z,95.28
2018-11-02T02:31:11.286Z,95.76
2018-11-02T02:34:35.019Z,96.01
2018-11-02T02:37:59.105Z,97.08
2018-11-02T02:41:14.802Z,98.05
2018-11-02T02:44:19.877Z,98.45
2018-11-02T02:47:43.587Z,98.99
2018-11-02T02:50:48.713Z,99.41
2018-11-02T02:57:17.409Z,99.30
2018-11-02T03:00:54.881Z,98.90
2018-11-02T03:03:46.422Z,98.95
2018-11-02T03:06:51.297Z,98.17
2018-11-02T03:10:15.306Z,97.59
2018-11-02T03:13:39.052Z,95.28
2018-11-02T03:16:54.757Z,94.36
2018-11-02T03:20:12.111Z,93.30
2018-11-02T03:23:28.627Z,93.12
2018-11-02T03:26:44.931Z,92.72
2018-11-02T03:29:49.819Z,92.09
2018-11-02T03:32:54.657Z,91.38
2018-11-02T03:36:18.382Z,91.16
2018-11-02T03:39:42.048Z,90.97
2018-11-02T03:43:00.868Z,90.51
2018-11-02T03:46:06.096Z,90.51
2018-11-02T03:49:29.961Z,90.84
2018-11-02T03:52:53.688Z,90.00
2018-11-02T03:56:10.306Z,90.20
2018-11-02T03:59:26.617Z,89.97
2018-11-02T04:02:31.487Z,89.66
2018-11-02T04:05:55.152Z,89.79
2018-11-02T04:09:11.037Z,89.23
2018-11-02T04:12:27.542Z,89.40
2018-11-02T04:15:32.431Z,89.65
2018-11-02T04:18:37.674Z,88.81
2018-11-02T04:22:01.387Z,88.64
2018-11-02T04:25:06.498Z,88.60
2018-11-02T04:28:30.234Z,88.39
2018-11-02T04:31:54.003Z,87.26
2018-11-02T04:35:10.235Z,87.66
2018-11-02T04:38:15.057Z,87.59
2018-11-02T04:41:31.698Z,86.81
2018-11-02T04:44:24.797Z,85.96
2018-11-02T04:47:48.522Z,86.30
2018-11-02T04:51:12.432Z,85.97
2018-11-02T04:54:28.832Z,85.77
2018-11-02T04:57:45.194Z,86.27
2018-11-02T05:01:01.181Z,86.78
2018-11-02T05:04:06.380Z,86.48
2018-11-02T05:07:30.094Z,87.07
2018-11-02T05:10:53.879Z,87.30
2018-11-02T05:14:09.583Z,87.38
2018-11-02T05:17:25.393Z,87.28
2018-11-02T05:20:43.696Z,87.50
2018-11-02T05:23:54.143Z,86.94
2018-11-02T05:27:10.363Z,87.54
2018-11-02T05:30:27.131Z,87.97
2018-11-02T05:33:43.618Z,87.56
2018-11-02T05:36:59.848Z,87.81
2018-11-02T05:40:16.323Z,87.36
2018-11-02T05:43:40.039Z,87.17
2018-11-02T05:47:03.973Z,86.56
2018-11-02T05:50:20.201Z,86.84
2018-11-02T05:53:25.149Z,86.69
2018-11-02T05:56:30.045Z,86.57
2018-11-02T05:59:53.772Z,86.18
2018-11-02T06:03:17.474Z,86.14
2018-11-02T06:06:33.672Z,86.05
2018-11-02T06:09:49.014Z,86.17
2018-11-02T06:12:53.933Z,86.07
2018-11-02T06:15:58.773Z,86.21
2018-11-02T06:19:22.873Z,86.38
2018-11-02T06:22:46.668Z,85.95
2018-11-02T06:26:03.679Z,86.15
2018-11-02T06:29:08.587Z,86.27
2018-11-02T06:32:13.737Z,86.51
2018-11-02T06:35:37.634Z,87.07
2018-11-02T06:38:42.612Z,87.34
2018-11-02T06:41:47.354Z,87.85
2018-11-02T06:45:11.883Z,88.14
2018-11-02T06:48:52.852Z,88.76
2018-11-02T06:51:59.424Z,89.46
2018-11-02T06:55:15.660Z,90.09
2018-11-02T06:58:32.059Z,91.61
2018-11-02T07:01:47.813Z,92.42
2018-11-02T07:05:03.810Z,93.25
2018-11-02T07:08:20.167Z,93.55
2018-11-02T07:11:24.960Z,93.67
2018-11-02T07:14:29.903Z,93.77
2018-11-02T07:17:34.838Z,93.43
2018-11-02T07:20:58.550Z,93.05
2018-11-02T07:24:22.235Z,92.65
2018-11-02T07:27:38.116Z,93.38
2018-11-02T07:30:54.632Z,93.49
2018-11-02T07:34:11.273Z,93.51
2018-11-02T07:37:27.614Z,93.75
2018-11-02T07:40:32.618Z,93.34
2018-11-02T07:43:37.505Z,92.93
2018-11-02T07:46:56.390Z,92.58
2018-11-02T07:49:47.598Z,92.35
2018-11-02T07:52:52.369Z,92.03
2018-11-02T07:56:16.062Z,91.99
2018-11-02T07:59:39.851Z,92.19
2018-11-02T08:02:55.780Z,92.63
2018-11-02T08:06:11.710Z,92.20
2018-11-02T08:09:16.639Z,91.89
2018-11-02T08:12:40.357Z,92.26
2018-11-02T08:16:04.032Z,92.71
2018-11-02T08:19:20.046Z,92.59
2018-11-02T08:22:36.482Z,92.87
2018-11-02T08:25:52.807Z,93.43
2018-11-02T08:29:08.811Z,93.11
2018-11-02T08:32:25.285Z,93.17
2018-11-02T08:35:41.902Z,93.10
2018-11-02T08:38:46.877Z,93.04
2018-11-02T08:41:51.747Z,92.07
2018-11-02T08:45:15.466Z,91.74
2018-11-02T08:48:32.229Z,90.87
2018-11-02T08:51:48.542Z,89.83
2018-11-02T08:55:13.686Z,88.89
2018-11-02T08:58:16.719Z,88.92
2018-11-02T09:01:21.415Z,88.41
2018-11-02T09:04:45.186Z,88.12
2018-11-02T09:08:21.037Z,88.07
2018-11-02T09:11:25.742Z,88.13
2018-11-02T09:14:44.187Z,87.64
2018-11-02T09:17:59.861Z,87.04
2018-11-02T09:21:15.816Z,86.15
2018-11-02T09:24:32.517Z,85.93
2018-11-02T09:27:48.626Z,84.79
2018-11-02T09:31:04.280Z,85.90
2018-11-02T09:34:20.307Z,85.07
2018-11-02T09:37:43.857Z,84.08
2018-11-02T09:41:07.633Z,84.05
2018-11-02T09:44:24.256Z,83.30
2018-11-02T09:47:41.641Z,83.84
2018-11-02T09:50:56.493Z,83.70
2018-11-02T09:54:12.421Z,84.01
2018-11-02T09:57:28.809Z,84.16
2018-11-02T10:00:45.435Z,84.22
2018-11-02T10:04:01.973Z,85.05
2018-11-02T10:07:18.568Z,84.44
2018-11-02T10:13:51.364Z,84.64
2018-11-02T10:17:08.107Z,83.08
2018-11-02T10:20:23.849Z,83.10
2018-11-02T10:23:40.637Z,82.96
2018-11-02T10:26:56.361Z,83.04
2018-11-02T10:30:13.914Z,83.71
2018-11-02T10:33:30.419Z,82.07
2018-11-02T10:36:36.198Z,83.41
2018-11-02T10:39:41.103Z,82.12
2018-11-02T10:43:08.714Z,81.18
2018-11-02T10:46:32.443Z,81.67
2018-11-02T10:49:37.358Z,81.08
2018-11-02T10:53:01.143Z,81.64
2018-11-02T10:56:17.037Z,81.99
2018-11-02T10:59:21.966Z,81.77
2018-11-02T11:02:45.433Z,81.82
2018-11-02T11:05:50.373Z,80.69
2018-11-02T11:09:14.463Z,80.60
2018-11-02T11:12:31.197Z,80.96
2018-11-02T11:15:46.811Z,80.78
2018-11-02T11:19:03.228Z,80.74
2018-11-02T11:22:19.759Z,79.26
2018-11-02T11:25:35.912Z,78.63
2018-11-02T11:28:52.235Z,79.49
2018-11-02T11:32:08.971Z,78.51
2018-11-02T11:35:24.711Z,79.93
2018-11-02T11:38:41.281Z,78.24
2018-11-02T11:42:04.738Z,78.10
2018-11-02T11:45:28.542Z,77.05
2018-11-02T11:48:44.222Z,77.63
2018-11-02T11:52:00.363Z,76.97
2018-11-02T11:55:17.702Z,75.88
2018-11-02T11:58:33.486Z,76.91
2018-11-02T12:01:53.367Z,77.38
2018-11-02T12:05:09.526Z,78.19
2018-11-02T12:08:25.253Z,82.38
2018-11-02T12:11:42.727Z,86.55
2018-11-02T12:14:58.788Z,87.59
2018-11-02T12:18:15.018Z,88.95
2018-11-02T12:21:31.661Z,90.29
2018-11-02T12:24:47.702Z,90.51
2018-11-02T12:27:53.218Z,91.51
2018-11-02T12:30:58.317Z,92.10
2018-11-02T12:34:03.145Z,93.83
2018-11-02T12:37:08.031Z,93.13
2018-11-02T12:40:31.897Z,91.88
2018-11-02T12:43:56.188Z,91.97
2018-11-02T12:47:12.466Z,91.97
2018-11-02T12:50:36.416Z,91.92
2018-11-02T12:53:41.249Z,92.40
2018-11-02T12:57:04.964Z,92.49
2018-11-02T13:00:29.338Z,93.25
2018-11-02T13:03:45.675Z,93.31
2018-11-02T13:06:50.625Z,93.25
2018-11-02T13:10:15.519Z,93.38
2018-11-02T13:16:55.972Z,94.17
2018-11-02T13:20:12.758Z,94.39
2018-11-02T13:23:29.243Z,95.04
2018-11-02T13:26:45.818Z,94.77
2018-11-02T13:29:50.683Z,95.41
2018-11-02T13:32:55.538Z,94.41
2018-11-02T13:36:33.789Z,93.53
2018-11-02T13:39:43.258Z,90.71
2018-11-02T13:42:59.030Z,89.89
2018-11-02T13:46:03.823Z,89.45
2018-11-02T13:49:27.598Z,89.76
2018-11-02T13:52:32.804Z,89.79
2018-11-02T13:55:56.549Z,89.01
2018-11-02T13:59:01.497Z,89.46
2018-11-02T14:02:06.849Z,89.11
2018-11-02T14:05:30.580Z,87.52
2018-11-02T14:08:54.463Z,88.53
2018-11-02T14:12:18.259Z,88.67
2018-11-02T14:15:23.162Z,87.59
2018-11-02T14:18:28.148Z,88.35
2018-11-02T14:21:32.913Z,89.49
2018-11-02T14:24:56.625Z,90.42
2018-11-02T14:28:13.214Z,90.18
2018-11-02T14:31:29.114Z,89.20
2018-11-02T14:38:04.289Z,89.84
2018-11-02T14:41:20.700Z,90.42
2018-11-02T14:44:36.556Z,90.23
2018-11-02T14:47:53.234Z,90.45
2018-11-02T14:50:58.118Z,91.05
2018-11-02T14:54:04.001Z,91.20
2018-11-02T14:57:08.877Z,89.02
2018-11-02T15:00:13.785Z,88.84
2018-11-02T15:03:37.573Z,89.62
2018-11-02T15:06:42.438Z,90.90
2018-11-02T15:09:47.337Z,91.61
2018-11-02T15:13:22.884Z,92.56
2018-11-02T15:16:27.435Z,93.14
2018-11-02T15:19:32.729Z,93.39
2018-11-02T15:22:56.508Z,93.34
2018-11-02T15:26:20.266Z,93.51
2018-11-02T15:29:36.539Z,93.86
2018-11-02T15:32:52.471Z,93.75
2018-11-02T15:35:57.347Z,94.08
2018-11-02T15:39:21.060Z,94.53
2018-11-02T15:42:59.496Z,94.65
2018-11-02T15:46:00.643Z,94.55
2018-11-02T15:49:16.546Z,94.09
2018-11-02T15:52:32.427Z,94.15
2018-11-02T15:55:48.544Z,94.70
2018-11-02T15:59:04.305Z,94.99
2018-11-02T16:02:20.147Z,95.28
2018-11-02T16:05:35.908Z,94.79
2018-11-02T16:08:40.901Z,94.77
2018-11-02T16:12:04.675Z,94.25
2018-11-02T16:15:28.369Z,94.44
2018-11-02T16:18:52.144Z,94.38
2018-11-02T16:21:57.015Z,94.62
2018-11-02T16:25:20.771Z,94.64
2018-11-02T16:28:37.144Z,94.77
2018-11-02T16:31:53.515Z,95.18
2018-11-02T16:35:09.507Z,95.69
2018-11-02T16:38:25.282Z,95.84
2018-11-02T16:41:41.922Z,95.84
2018-11-02T16:44:58.326Z,96.12
2018-11-02T16:48:15.131Z,96.73
2018-11-02T16:51:19.982Z,96.86
2018-11-02T16:54:25.035Z,97.03
2018-11-02T16:57:41.664Z,97.24
2018-11-02T17:00:34.850Z,97.44
2018-11-02T17:03:58.665Z,97.69
2018-11-02T17:10:34.378Z,97.89
2018-11-02T17:13:50.546Z,97.97
2018-11-02T17:17:06.397Z,97.82
2018-11-02T17:20:23.131Z,97.55
2018-11-02T17:23:39.461Z,96.57
2018-11-02T17:26:44.431Z,94.66
2018-11-02T17:29:49.396Z,93.09
2018-11-02T17:32:54.244Z,92.38
2018-11-02T17:36:18.118Z,92.33
2018-11-02T17:39:34.501Z,92.55
2018-11-02T17:42:50.448Z,91.64
2018-11-02T17:46:07.176Z,91.40
2018-11-02T17:49:23.936Z,92.23
2018-11-02T17:52:40.642Z,92.42
2018-11-02T17:55:56.537Z,92.38
2018-11-02T17:59:12.566Z,92.35
2018-11-02T18:02:29.264Z,93.03
2018-11-02T18:05:48.281Z,93.60
2018-11-02T18:09:09.891Z,94.28
2018-11-02T18:12:33.387Z,94.57
2018-11-02T18:15:26.635Z,94.89
2018-11-02T18:18:50.466Z,94.84
2018-11-02T18:22:14.200Z,95.12
2018-11-02T18:25:29.916Z,95.51
2018-11-02T18:28:46.185Z,95.84
2018-11-02T18:32:02.167Z,96.34
2018-11-02T18:35:18.061Z,96.51
2018-11-02T18:38:34.803Z,96.74
2018-11-02T18:41:51.157Z,96.60
2018-11-02T18:45:06.887Z,96.57
2018-11-02T18:48:23.600Z,95.99
2018-11-02T18:51:40.527Z,96.01
2018-11-02T18:54:57.051Z,95.38
2018-11-02T18:58:13.128Z,95.56
2018-11-02T19:01:29.539Z,95.45
2018-11-02T19:04:45.952Z,95.20
2018-11-02T19:08:01.743Z,94.99
2018-11-02T19:11:17.652Z,94.15
2018-11-02T19:14:34.124Z,93.98
2018-11-02T19:17:50.768Z,94.12
2018-11-02T19:21:07.306Z,94.32
2018-11-02T19:24:23.925Z,93.93
2018-11-02T19:27:29.094Z,93.97
2018-11-02T19:30:52.756Z,94.09
2018-11-02T19:34:09.106Z,93.83
2018-11-02T19:37:25.709Z,94.05
2018-11-02T19:40:49.551Z,93.72
2018-11-02T19:44:05.714Z,93.09
2018-11-02T19:47:22.263Z,93.25
2018-11-02T19:50:38.304Z,93.21
2018-11-02T19:53:54.917Z,93.29
2018-11-02T19:57:11.558Z,93.57
2018-11-02T20:00:27.538Z,93.56
2018-11-02T20:03:44.253Z,93.75
2018-11-02T20:07:00.206Z,94.02
2018-11-02T20:10:17.602Z,93.89
2018-11-02T20:13:33.668Z,94.29
2018-11-02T20:16:49.534Z,94.02
2018-11-02T20:20:05.370Z,94.20
2018-11-02T20:23:21.374Z,94.67
2018-11-02T20:26:37.185Z,95.32
2018-11-02T20:29:53.176Z,95.32
2018-11-02T20:33:09.741Z,95.50
2018-11-02T20:36:33.351Z,95.92
2018-11-02T20:39:57.094Z,96.56
2018-11-02T20:43:13.244Z,97.28
2018-11-02T20:46:29.063Z,97.04
2018-11-02T20:49:45.454Z,97.22
2018-11-02T20:53:01.268Z,97.64
2018-11-02T20:56:17.214Z,97.95
2018-11-02T20:59:33.064Z,98.12
2018-11-02T21:02:55.779Z,97.35
2018-11-02T21:06:11.509Z,96.75
2018-11-02T21:09:28.649Z,96.76
2018-11-02T21:12:44.129Z,95.70
2018-11-02T21:16:00.734Z,96.26
2018-11-02T21:19:16.632Z,96.08
2018-11-02T21:22:33.264Z,96.66
2018-11-02T21:25:48.992Z,96.78
2018-11-02T21:29:05.700Z,95.61
2018-11-02T21:32:21.652Z,95.07
2018-11-02T21:38:54.630Z,95.13
2018-11-02T21:42:11.110Z,95.88
2018-11-02T21:45:27.588Z,96.39
2018-11-02T21:48:43.392Z,97.40
2018-11-02T21:51:59.585Z,97.98
2018-11-02T21:55:16.039Z,98.05
2018-11-02T21:58:31.927Z,98.37
2018-11-02T22:01:36.729Z,98.32
2018-11-02T22:05:00.474Z,98.71
2018-11-02T22:08:16.193Z,99.17
2018-11-02T22:11:21.211Z,99.21
2018-11-02T22:14:44.928Z,99.01
2018-11-02T22:18:08.816Z,98.98
2018-11-02T22:21:27.359Z,98.89
2018-11-02T22:24:43.915Z,98.82
2018-11-02T22:27:59.820Z,98.56
2018-11-02T22:31:16.362Z,98.96
2018-11-02T22:34:39.749Z,99.29
2018-11-02T22:38:03.548Z,99.40
2018-11-02T22:41:20.099Z,99.63
2018-11-02T22:44:24.973Z,99.82
2018-11-02T22:47:30.019Z,100.40
2018-11-02T22:50:46.463Z,100.30
2018-11-02T22:54:10.729Z,100.47
2018-11-02T22:57:15.045Z,100.22
2018-11-02T23:00:31.678Z,100.47
2018-11-02T23:03:36.529Z,100.26
2018-11-02T23:06:41.506Z,100.16
2018-11-02T23:10:05.850Z,100.24
2018-11-02T23:13:10.719Z,100.70
2018-11-02T23:16:15.608Z,100.40
2018-11-02T23:19:39.349Z,100.33
2018-11-02T23:22:55.208Z,100.41
2018-11-02T23:26:00.119Z,100.82
2018-11-02T23:29:23.917Z,100.95
2018-11-02T23:32:47.823Z,100.99
2018-11-02T23:36:11.567Z,101.21
2018-11-02T23:39:27.734Z,101.26
2018-11-02T23:42:44.335Z,100.96
2018-11-02T23:45:49.355Z,101.21
2018-11-02T23:49:06.210Z,101.16
2018-11-02T23:51:59.173Z,101.39
2018-11-02T23:58:27.784Z,101.65
